Castle Valley, Utah
Current Conditions -  °F | °C
As of 2:53 PM on Thursday 23 Oct 2014 (Local Time) from KCNY Reporting Station
Clear Clear  
Wind Chill: 72°   Ceiling: Unl
Heat Index: 72°   Visibility: 10mi
Dew Point: 35°   Wind: 5mph
Humidity: 26%   Direction: 140°SE
Pressure: 30.14"   Gusts: NA
Location:  38.6903°N, 109.256°W
Report Text: KCNY 232053Z AUTO 14004KT 10SM CLR 22/02 A3014 RMK AO2 SLP174 T02220017 58024
Loading
Personal Weather Stations






























Interactive Weather Map New forecast layout! Learn more

10-Day Weather Forecast

Advertisements
Track Severe Weather on mobile